Time;durP1;ratioP1;P1;durP2;ratioP2;P2;SDS_P1;SDS_P2;PMS_P1;PMS_P2;Temp;Humidity;BMP_temperature;BMP_pressure;BME280_temperature;BME280_humidity;BME280_pressure;Samples;Min_cycle;Max_cycle;Signal;HPM_P1;HPM_P2
2021/06/15 00:01:05;;;;;;;5.30;3.75;;;;;;;23.75;26.56;101453.44;6192592;23;20423;-77
2021/06/15 00:03:33;;;;;;;6.15;3.85;;;;;;;23.74;26.60;101451.72;6192264;23;20009;-77
2021/06/15 00:06:02;;;;;;;4.53;3.72;;;;;;;23.74;26.56;101447.00;6191114;23;20012;-76
2021/06/15 00:08:31;;;;;;;6.05;3.78;;;;;;;23.72;26.86;101451.06;6191590;23;20019;-77
2021/06/15 00:11:00;;;;;;;4.97;3.55;;;;;;;23.72;26.51;101451.94;6191918;23;20008;-77
2021/06/15 00:13:29;;;;;;;5.22;3.85;;;;;;;23.70;26.84;101448.50;6191771;23;20041;-76
2021/06/15 00:15:59;;;;;;;5.60;3.42;;;;;;;23.71;26.37;101444.63;6191683;23;20048;-77
2021/06/15 00:18:32;;;;;;;5.45;3.78;;;;;;;23.69;26.89;101447.63;6192408;23;20021;-77
2021/06/15 00:21:05;;;;;;;5.03;3.88;;;;;;;23.68;26.97;101447.84;6164857;23;20012;-77
2021/06/15 00:26:30;;;;;;;6.45;3.97;;;;;;;23.64;26.47;101452.09;6138918;23;20011;-74
2021/06/15 00:28:59;;;;;;;6.07;4.00;;;;;;;23.63;26.80;101447.59;6165552;23;20056;-75
2021/06/15 00:31:29;;;;;;;6.05;3.88;;;;;;;23.65;26.86;101453.81;6165169;23;20494;-75
2021/06/15 00:33:57;;;;;;;5.88;3.75;;;;;;;23.62;27.04;101457.03;6191824;23;20008;-75
2021/06/15 00:36:25;;;;;;;5.75;3.55;;;;;;;23.61;27.11;101452.50;6191956;23;20621;-74
2021/06/15 00:38:53;;;;;;;6.90;4.30;;;;;;;23.60;27.21;101450.78;6191459;23;20005;-75
2021/06/15 00:41:22;;;;;;;6.95;4.55;;;;;;;23.60;27.31;101448.00;6165025;23;20017;-74
2021/06/15 00:43:50;;;;;;;5.30;3.85;;;;;;;23.59;27.00;101457.44;6164837;23;20012;-74
2021/06/15 00:46:19;;;;;;;5.47;4.00;;;;;;;23.58;27.34;101455.69;6164538;23;20094;-74
2021/06/15 00:48:50;;;;;;;6.47;3.92;;;;;;;23.57;27.22;101457.63;6192330;23;20024;-74
2021/06/15 00:51:18;;;;;;;6.45;3.53;;;;;;;23.54;26.73;101455.25;6165272;23;20017;-74
2021/06/15 00:53:47;;;;;;;5.63;3.58;;;;;;;23.52;27.06;101448.16;6165867;23;20005;-74
2021/06/15 00:56:16;;;;;;;5.78;3.97;;;;;;;23.51;26.97;101452.00;6164941;23;20297;-74
2021/06/15 00:58:44;;;;;;;6.55;4.40;;;;;;;23.50;27.35;101450.28;6192021;23;20013;-75
2021/06/15 01:01:13;;;;;;;7.45;4.30;;;;;;;23.48;27.32;101456.06;6192362;23;20020;-75
2021/06/15 01:03:46;;;;;;;5.28;4.05;;;;;;;23.45;27.37;101453.66;6164846;23;20254;-75
2021/06/15 01:06:28;;;;;;;6.40;4.25;;;;;;;23.48;27.23;101456.06;6164550;23;20009;-75
2021/06/15 01:09:03;;;;;;;5.68;3.95;;;;;;;23.47;27.24;101453.47;6164256;23;20015;-75
2021/06/15 01:11:50;;;;;;;6.65;4.05;;;;;;;23.46;27.05;101465.72;6192425;23;20005;-76
2021/06/15 01:14:35;;;;;;;6.78;3.80;;;;;;;23.43;27.28;101461.38;6164505;23;20015;-75
2021/06/15 01:17:11;;;;;;;5.90;4.10;;;;;;;23.41;27.86;101459.84;6190980;23;20028;-76
2021/06/15 01:19:52;;;;;;;8.63;4.40;;;;;;;23.41;27.46;101471.00;6164809;23;20025;-76
2021/06/15 01:22:49;;;;;;;5.55;3.85;;;;;;;23.36;27.82;101470.75;6165483;23;20009;-76
2021/06/15 01:25:27;;;;;;;6.15;3.97;;;;;;;23.35;27.91;101469.03;6141299;23;20081;-75
2021/06/15 01:28:02;;;;;;;6.22;3.97;;;;;;;23.33;27.70;101475.66;6163896;23;20222;-75
2021/06/15 01:30:40;;;;;;;6.97;4.50;;;;;;;23.30;27.36;101470.47;6191488;23;20009;-75
2021/06/15 01:33:13;;;;;;;6.47;4.38;;;;;;;23.28;27.36;101472.63;6191556;23;20009;-75
2021/06/15 01:35:43;;;;;;;6.05;4.22;;;;;;;23.24;27.71;101465.72;6164711;23;20016;-75
2021/06/15 01:38:15;;;;;;;6.80;4.07;;;;;;;23.24;27.78;101464.84;6164749;23;20371;-76
2021/06/15 01:40:53;;;;;;;5.88;4.30;;;;;;;23.20;27.66;101471.91;6191660;23;20005;-75
2021/06/15 01:43:32;;;;;;;5.78;3.95;;;;;;;23.16;27.86;101465.84;6164614;23;20027;-75
2021/06/15 01:46:04;;;;;;;7.00;4.60;;;;;;;23.15;27.65;101463.25;6163867;23;20404;-75
2021/06/15 01:48:40;;;;;;;7.25;4.57;;;;;;;23.12;28.26;101472.91;6165475;23;20033;-75
2021/06/15 01:51:12;;;;;;;6.30;4.35;;;;;;;23.11;28.33;101470.31;6165290;23;20012;-75
2021/06/15 01:53:45;;;;;;;6.70;4.80;;;;;;;23.10;28.67;101468.59;6191728;23;20021;-75
2021/06/15 01:56:20;;;;;;;6.57;4.75;;;;;;;23.05;28.16;101465.56;6190355;23;20005;-75
2021/06/15 01:58:58;;;;;;;9.52;5.45;;;;;;;23.03;29.44;101470.47;6165000;23;20045;-75
2021/06/15 02:01:30;;;;;;;6.53;4.82;;;;;;;22.99;28.32;101463.53;6165263;23;20079;-75
2021/06/15 02:04:04;;;;;;;10.18;4.97;;;;;;;22.95;28.55;101468.66;6164505;23;20376;-75
2021/06/15 02:06:35;;;;;;;7.03;5.38;;;;;;;22.94;28.68;101472.50;6191065;23;20008;-75
2021/06/15 02:09:06;;;;;;;7.53;5.03;;;;;;;22.91;29.11;101468.19;6165582;23;20005;-74
2021/06/15 02:11:48;;;;;;;7.82;5.30;;;;;;;22.86;28.76;101467.94;6165051;23;20005;-75
2021/06/15 02:14:38;;;;;;;8.52;5.32;;;;;;;22.85;28.83;101476.50;6191185;23;20049;-75
2021/06/15 02:17:31;;;;;;;7.90;5.18;;;;;;;22.80;28.99;101467.84;6191030;23;20005;-75
2021/06/15 02:20:11;;;;;;;6.75;4.97;;;;;;;22.79;29.21;101472.56;6165268;23;20042;-75
2021/06/15 02:22:45;;;;;;;7.20;5.15;;;;;;;22.76;29.53;101472.94;6165057;23;20028;-75
2021/06/15 02:25:19;;;;;;;6.88;5.00;;;;;;;22.74;29.09;101465.81;6165066;23;20012;-75
2021/06/15 02:27:48;;;;;;;6.55;4.90;;;;;;;22.72;29.19;101460.47;6166270;23;20277;-75
2021/06/15 02:30:22;;;;;;;8.27;5.28;;;;;;;22.70;29.12;101462.56;6167353;23;20053;-75
2021/06/15 02:33:01;;;;;;;9.77;5.95;;;;;;;22.71;29.93;101471.81;6166470;23;20015;-75
2021/06/15 02:35:30;;;;;;;8.23;5.72;;;;;;;22.66;29.31;101472.38;6166250;23;20384;-75
2021/06/15 02:38:05;;;;;;;8.85;6.00;;;;;;;22.67;30.03;101476.91;6192722;23;20270;-75
2021/06/15 02:40:35;;;;;;;8.93;5.65;;;;;;;22.62;29.80;101473.00;6166286;23;20008;-75
2021/06/15 02:43:07;;;;;;;7.40;5.65;;;;;;;22.62;29.38;101461.84;6167058;23;20016;-75
2021/06/15 02:45:41;;;;;;;9.00;6.07;;;;;;;22.60;29.86;101464.81;6165835;23;20025;-75
2021/06/15 02:48:13;;;;;;;7.18;5.68;;;;;;;22.56;29.92;101469.91;6192842;23;20012;-75
2021/06/15 02:50:48;;;;;;;8.75;6.00;;;;;;;22.54;29.84;101473.97;6193429;23;20009;-75
2021/06/15 02:53:25;;;;;;;8.98;5.93;;;;;;;22.54;30.86;101473.97;6166085;23;20006;-75
2021/06/15 02:55:59;;;;;;;9.48;6.93;;;;;;;22.51;30.56;101475.22;6165580;23;20012;-75
2021/06/15 02:58:33;;;;;;;7.60;5.78;;;;;;;22.46;30.43;101480.53;6165631;23;20346;-74
2021/06/15 03:01:03;;;;;;;8.38;6.10;;;;;;;22.46;29.98;101474.97;6193992;23;20451;-74
2021/06/15 03:03:36;;;;;;;8.07;5.85;;;;;;;22.45;30.33;101486.31;6142096;23;20113;-74
2021/06/15 03:06:05;;;;;;;7.90;6.22;;;;;;;22.42;29.97;101476.41;6192119;23;20023;-75
2021/06/15 03:08:36;;;;;;;9.40;6.82;;;;;;;22.39;30.25;101482.38;6167159;23;20372;-75
2021/06/15 03:11:05;;;;;;;8.50;6.20;;;;;;;22.38;30.10;101477.88;6166455;23;20065;-76
2021/06/15 03:13:38;;;;;;;10.00;6.43;;;;;;;22.38;30.86;101477.00;6141212;23;20352;-75
2021/06/15 03:16:15;;;;;;;8.30;6.22;;;;;;;22.35;30.81;101482.94;6165603;23;20005;-74
2021/06/15 03:19:05;;;;;;;8.38;5.90;;;;;;;22.31;31.03;101478.84;6167119;23;20020;-75
2021/06/15 03:21:40;;;;;;;9.52;6.25;;;;;;;22.30;30.87;101483.53;6173397;23;20099;-76
2021/06/15 03:24:17;;;;;;;8.27;6.47;;;;;;;22.29;30.94;101483.72;6192480;23;20005;-75
2021/06/15 03:26:53;;;;;;;8.82;6.88;;;;;;;22.27;31.08;101477.47;6165528;23;20019;-74
2021/06/15 03:29:27;;;;;;;9.60;6.68;;;;;;;22.26;30.99;101481.31;6191732;23;20009;-74
2021/06/15 03:31:59;;;;;;;;;;;;;;;21.94;31.04;101489.00;6192349;23;20281;-73
2021/06/15 03:34:34;;;;;;;8.55;6.28;;;;;;;22.17;30.91;101502.81;6166302;23;20045;-74
2021/06/15 03:37:04;;;;;;;7.90;5.57;;;;;;;22.15;30.64;101502.16;6191620;23;20366;-74
2021/06/15 03:39:36;;;;;;;8.25;7.03;;;;;;;22.13;31.19;101501.50;6165957;23;20223;-74
2021/06/15 03:42:08;;;;;;;8.15;6.65;;;;;;;22.12;31.34;101506.22;6140273;23;20033;-74
2021/06/15 03:44:38;;;;;;;11.25;7.68;;;;;;;22.09;31.26;101505.72;6192981;23;20101;-73
2021/06/15 03:47:09;;;;;;;9.32;7.10;;;;;;;22.09;31.42;101498.22;6166115;23;20257;-73
2021/06/15 03:49:38;;;;;;;8.95;7.03;;;;;;;22.06;31.47;101489.41;6167304;23;20024;-73
2021/06/15 03:52:08;;;;;;;9.95;6.82;;;;;;;22.05;31.48;101496.91;6192835;23;20009;-74
2021/06/15 03:54:38;;;;;;;9.15;6.57;;;;;;;22.04;31.73;101494.28;6192822;23;20012;-74
2021/06/15 03:57:08;;;;;;;9.35;7.18;;;;;;;22.02;31.48;101507.53;6192082;23;20103;-74
2021/06/15 03:59:37;;;;;;;9.20;7.03;;;;;;;22.01;31.93;101505.81;6193019;23;20314;-74
2021/06/15 04:02:07;;;;;;;8.90;6.82;;;;;;;22.00;32.47;101506.88;6193501;23;20025;-73
2021/06/15 04:04:40;;;;;;;10.85;7.20;;;;;;;21.98;31.99;101509.88;6193701;23;20300;-73
2021/06/15 04:07:14;;;;;;;10.32;7.72;;;;;;;21.98;32.63;101506.22;6192072;23;20463;-73
2021/06/15 04:09:45;;;;;;;11.55;8.00;;;;;;;21.95;32.63;101507.44;6144281;23;20020;-74
2021/06/15 04:12:14;;;;;;;10.55;7.72;;;;;;;21.93;32.63;101515.13;6166388;23;20048;-73
2021/06/15 04:14:45;;;;;;;8.88;6.88;;;;;;;21.93;32.54;101514.25;6192929;23;20012;-74
2021/06/15 04:17:19;;;;;;;9.60;7.40;;;;;;;21.93;32.54;101517.03;6165767;23;20040;-74
2021/06/15 04:20:06;;;;;;;9.77;7.47;;;;;;;21.88;32.18;101523.22;6170310;23;20013;-74
2021/06/15 04:22:37;;;;;;;10.82;7.40;;;;;;;21.86;32.62;101533.66;6167022;23;20243;-74
2021/06/15 04:25:10;;;;;;;12.50;8.45;;;;;;;21.87;32.43;101531.75;6164612;23;20098;-74
2021/06/15 04:27:39;;;;;;;10.23;6.90;;;;;;;21.85;32.62;101531.94;6191950;23;20009;-74
2021/06/15 04:30:08;;;;;;;10.75;7.68;;;;;;;21.85;32.96;101534.72;6165980;23;20069;-74
2021/06/15 04:32:51;;;;;;;11.48;7.68;;;;;;;21.86;32.62;101547.59;6192349;23;20681;-74
2021/06/15 04:35:26;;;;;;;10.23;7.07;;;;;;;21.85;32.94;101556.13;6192746;23;20024;-73
2021/06/15 04:37:56;;;;;;;9.40;7.65;;;;;;;21.82;33.02;101555.44;6191978;23;20009;-74
2021/06/15 04:40:29;;;;;;;11.10;8.50;;;;;;;21.83;33.09;101561.88;6165981;23;20028;-73
2021/06/15 04:43:20;;;;;;;9.77;7.32;;;;;;;21.79;33.32;101569.78;6192971;23;20021;-74
2021/06/15 04:45:52;;;;;;;10.65;8.18;;;;;;;21.74;33.34;101566.66;6167573;23;20497;-74
2021/06/15 04:48:27;;;;;;;9.73;7.57;;;;;;;21.72;33.65;101565.16;6192486;23;20009;-74
2021/06/15 04:50:59;;;;;;;10.77;7.75;;;;;;;21.70;34.15;101573.69;6191244;23;20009;-73
2021/06/15 04:53:36;;;;;;;11.10;7.30;;;;;;;21.66;33.38;101575.09;6191890;23;20033;-74
2021/06/15 04:56:07;;;;;;;8.50;6.80;;;;;;;21.64;33.77;101581.94;6191837;23;20021;-74
2021/06/15 04:58:36;;;;;;;9.18;7.45;;;;;;;21.59;33.81;101576.91;6165977;23;20228;-74
2021/06/15 05:01:05;;;;;;;10.90;8.18;;;;;;;21.58;34.14;101571.53;6166747;23;20013;-73
2021/06/15 05:03:34;;;;;;;10.90;6.75;;;;;;;21.56;33.64;101573.66;6192249;23;20025;-74
2021/06/15 05:06:07;;;;;;;9.45;7.47;;;;;;;21.54;33.94;101573.81;6193398;23;20271;-74
2021/06/15 05:08:40;;;;;;;11.13;7.75;;;;;;;21.51;34.89;101576.94;6165820;23;20011;-73
2021/06/15 05:11:09;;;;;;;9.45;7.22;;;;;;;21.47;34.34;101571.97;6165459;23;20005;-74
2021/06/15 05:13:40;;;;;;;10.63;7.68;;;;;;;21.47;34.36;101574.75;6192213;23;20041;-74
2021/06/15 05:16:10;;;;;;;9.88;7.20;;;;;;;21.48;34.73;101584.81;6191970;23;20277;-74
2021/06/15 05:18:41;;;;;;;10.38;6.95;;;;;;;21.46;34.79;101585.00;6192377;23;20338;-74
2021/06/15 05:21:14;;;;;;;9.68;7.05;;;;;;;21.44;34.80;101599.09;6192101;23;20282;-74
2021/06/15 05:23:47;;;;;;;9.60;7.15;;;;;;;21.44;35.16;101592.66;6192379;23;20364;-74
2021/06/15 05:26:17;;;;;;;10.25;7.13;;;;;;;21.40;34.79;101594.97;6191700;23;20352;-74
2021/06/15 05:28:45;;;;;;;10.65;6.53;;;;;;;21.42;34.73;101595.63;6166229;23;20005;-74
2021/06/15 05:31:13;;;;;;;9.57;6.97;;;;;;;21.44;34.70;101593.53;6192414;23;20016;-73
2021/06/15 05:33:43;;;;;;;10.45;6.82;;;;;;;21.50;34.80;101591.91;6192184;23;20451;-74
2021/06/15 05:36:12;;;;;;;8.68;5.82;;;;;;;21.50;34.71;101611.41;6191784;23;20098;-74
2021/06/15 05:38:41;;;;;;;9.30;5.80;;;;;;;21.52;34.61;101600.97;6191603;23;20005;-74
2021/06/15 05:41:10;;;;;;;10.20;6.28;;;;;;;21.56;34.62;101609.84;6191168;23;20378;-74
2021/06/15 05:43:39;;;;;;;9.27;6.35;;;;;;;21.58;35.23;101591.88;6192266;23;20075;-74
2021/06/15 05:46:07;;;;;;;8.48;6.95;;;;;;;21.61;34.90;101593.44;6191614;23;20009;-74
2021/06/15 05:48:36;;;;;;;8.38;6.55;;;;;;;21.64;34.78;101579.16;6191339;23;20274;-74
2021/06/15 05:51:06;;;;;;;8.30;6.10;;;;;;;21.69;34.88;101582.22;6165680;23;20250;-74
2021/06/15 05:53:34;;;;;;;9.48;7.13;;;;;;;21.67;34.66;101587.97;6192344;23;20247;-74
2021/06/15 05:56:02;;;;;;;9.50;6.75;;;;;;;21.68;35.37;101580.50;6191668;23;20040;-74
2021/06/15 05:58:31;;;;;;;10.30;6.88;;;;;;;21.69;34.70;101593.38;6165015;23;20005;-74
2021/06/15 06:00:59;;;;;;;8.65;5.93;;;;;;;21.70;34.76;101586.75;6194214;23;20028;-74
2021/06/15 06:03:33;;;;;;;8.00;5.82;;;;;;;21.71;34.97;101583.78;6167661;23;20011;-74
2021/06/15 06:08:50;;;;;;;9.02;6.25;;;;;;;21.80;35.29;101581.78;6167560;23;20017;-74
2021/06/15 06:11:18;;;;;;;8.55;6.57;;;;;;;21.82;35.63;101583.31;6193787;23;20016;-74
2021/06/15 06:13:49;;;;;;;8.05;5.72;;;;;;;21.89;35.67;101585.34;6193995;23;20009;-74
2021/06/15 06:16:17;;;;;;;9.40;6.32;;;;;;;21.97;35.53;101588.06;6193622;23;20012;-74
2021/06/15 06:19:06;;;;;;;9.25;5.93;;;;;;;22.04;35.14;101591.81;6166958;23;20017;-74
2021/06/15 06:21:36;;;;;;;9.65;5.88;;;;;;;22.15;35.57;101602.47;6194021;23;20261;-74
2021/06/15 06:24:08;;;;;;;9.55;6.07;;;;;;;22.25;35.29;101603.09;6193107;23;20005;-74
2021/06/15 06:26:37;;;;;;;9.70;6.03;;;;;;;22.30;35.77;101608.09;6192333;23;20386;-74
2021/06/15 06:29:06;;;;;;;9.85;6.72;;;;;;;22.43;35.61;101605.50;6167064;23;20016;-74
2021/06/15 06:31:35;;;;;;;8.35;5.78;;;;;;;22.51;35.56;101605.41;6167857;23;20015;-74
2021/06/15 06:34:03;;;;;;;10.25;6.70;;;;;;;22.61;34.82;101608.78;6193727;23;20012;-74
2021/06/15 06:36:31;;;;;;;8.00;5.70;;;;;;;22.70;34.67;101615.97;6192551;23;20028;-75
2021/06/15 06:39:02;;;;;;;7.45;5.55;;;;;;;22.79;34.94;101613.94;6193945;23;20009;-74
2021/06/15 06:41:32;;;;;;;7.75;5.03;;;;;;;22.89;34.78;101618.16;6166950;23;20016;-73
2021/06/15 06:44:00;;;;;;;7.97;5.05;;;;;;;22.96;34.86;101618.28;6167030;23;20345;-74
2021/06/15 06:46:30;;;;;;;8.30;5.45;;;;;;;23.04;34.80;101620.09;6166424;23;20357;-73
2021/06/15 06:48:58;;;;;;;6.28;4.47;;;;;;;23.11;34.53;101624.69;6192715;23;20009;-74
2021/06/15 06:51:27;;;;;;;7.63;5.50;;;;;;;23.18;34.73;101621.97;6166485;23;20024;-74
2021/06/15 06:53:55;;;;;;;8.50;5.20;;;;;;;23.26;34.40;101627.41;6193484;23;20005;-74
2021/06/15 06:56:23;;;;;;;7.93;5.40;;;;;;;23.35;34.29;101628.16;6192891;23;20005;-74
2021/06/15 06:58:53;;;;;;;9.88;5.35;;;;;;;23.45;34.34;101628.72;6193441;23;20013;-74
2021/06/15 07:01:22;;;;;;;6.15;4.70;;;;;;;23.50;34.22;101624.28;6194515;23;20013;-74
2021/06/15 07:03:51;;;;;;;7.38;5.07;;;;;;;23.59;33.85;101625.88;6193496;23;20009;-74
2021/06/15 07:06:19;;;;;;;6.47;4.60;;;;;;;23.68;34.31;101623.81;6166961;23;20049;-73
2021/06/15 07:08:48;;;;;;;7.63;5.32;;;;;;;23.76;33.76;101625.59;6193284;23;20052;-73
2021/06/15 07:11:16;;;;;;;7.13;4.28;;;;;;;23.84;33.57;101626.31;6192973;23;20012;-73
2021/06/15 07:13:48;;;;;;;6.20;4.35;;;;;;;23.90;33.72;101624.63;6193790;23;20020;-73
2021/06/15 07:16:18;;;;;;;6.80;4.57;;;;;;;24.01;33.78;101624.97;6192996;23;20016;-71
2021/06/15 07:18:58;;;;;;;6.47;4.50;;;;;;;24.04;33.45;101632.94;6195000;23;20005;-73
2021/06/15 07:21:27;;;;;;;7.28;4.70;;;;;;;24.13;33.48;101635.59;6193017;23;20228;-73
2021/06/15 07:23:55;;;;;;;6.40;4.03;;;;;;;24.19;33.08;101635.69;6193238;23;20102;-73
2021/06/15 07:26:23;;;;;;;5.95;3.70;;;;;;;24.26;33.30;101639.38;6165806;23;20012;-74
2021/06/15 07:28:52;;;;;;;6.03;4.32;;;;;;;24.34;33.06;101621.59;6193241;23;20005;-75
2021/06/15 07:31:21;;;;;;;5.97;3.67;;;;;;;24.42;32.96;101622.28;6193029;23;20009;-75
2021/06/15 07:33:50;;;;;;;7.93;4.97;;;;;;;24.49;32.81;101618.66;6193624;23;20045;-74
2021/06/15 07:36:18;;;;;;;5.75;3.83;;;;;;;24.54;32.73;101614.16;6192765;23;20095;-75
2021/06/15 07:38:46;;;;;;;5.65;3.65;;;;;;;24.61;32.77;101614.22;6193954;23;20015;-75
2021/06/15 07:41:15;;;;;;;6.40;3.67;;;;;;;24.67;32.42;101621.81;6165769;23;20033;-75
2021/06/15 07:43:43;;;;;;;6.60;4.18;;;;;;;24.73;32.44;101623.78;6165920;23;20008;-75
2021/06/15 07:46:13;;;;;;;6.70;3.72;;;;;;;24.78;32.88;101616.47;6190624;23;20005;-75
2021/06/15 07:48:43;;;;;;;11.27;5.95;;;;;;;24.85;32.29;101627.72;6194018;23;20005;-75
2021/06/15 07:51:12;;;;;;;10.30;5.85;;;;;;;24.91;32.12;101634.41;6193214;23;20017;-74
2021/06/15 07:53:40;;;;;;;7.90;4.60;;;;;;;24.94;32.17;101629.28;6166253;23;20739;-74
2021/06/15 07:56:10;;;;;;;6.25;4.05;;;;;;;25.00;32.22;101634.03;6192343;23;20008;-75
2021/06/15 07:58:39;;;;;;;6.60;3.50;;;;;;;25.05;32.19;101637.03;6166203;23;20016;-74
2021/06/15 08:01:07;;;;;;;5.30;3.63;;;;;;;25.11;32.17;101638.16;6193940;23;20016;-75
2021/06/15 08:03:36;;;;;;;6.03;3.45;;;;;;;25.19;31.80;101640.78;6193177;23;20046;-75
2021/06/15 08:06:06;;;;;;;5.03;3.35;;;;;;;25.30;31.63;101642.13;6192189;23;20005;-75
2021/06/15 08:08:34;;;;;;;6.50;3.15;;;;;;;25.34;31.76;101640.63;6192845;23;20004;-74
2021/06/15 08:11:03;;;;;;;8.80;4.88;;;;;;;25.41;31.36;101635.91;6192796;23;20107;-75
2021/06/15 08:13:32;;;;;;;5.38;3.80;;;;;;;25.47;31.39;101638.72;6192919;23;20102;-75
2021/06/15 08:16:00;;;;;;;8.70;4.43;;;;;;;25.51;31.08;101644.78;6192170;23;20012;-75
2021/06/15 08:18:30;;;;;;;7.68;4.07;;;;;;;25.57;31.01;101641.09;6192677;23;20013;-75
2021/06/15 08:21:00;;;;;;;4.93;3.25;;;;;;;25.62;31.08;101637.66;6192802;23;20059;-75
2021/06/15 08:23:30;;;;;;;4.53;2.90;;;;;;;25.68;30.94;101632.09;6165917;23;20107;-75
2021/06/15 08:25:59;;;;;;;4.72;2.88;;;;;;;25.73;31.15;101629.50;6192969;23;20028;-74
2021/06/15 08:28:28;;;;;;;6.07;3.28;;;;;;;25.79;30.90;101622.16;6192563;23;20071;-75
2021/06/15 08:30:57;;;;;;;5.68;2.97;;;;;;;25.86;30.56;101628.66;6192835;23;20009;-75
2021/06/15 08:33:26;;;;;;;5.68;3.10;;;;;;;25.93;30.84;101627.59;6192853;23;20009;-75
2021/06/15 08:35:55;;;;;;;4.93;3.10;;;;;;;26.01;30.52;101628.47;6193278;23;20043;-75
2021/06/15 08:38:23;;;;;;;5.63;3.03;;;;;;;26.08;30.68;101621.78;6166059;23;20005;-75
2021/06/15 08:40:53;;;;;;;5.72;3.00;;;;;;;26.17;29.64;101619.59;6166066;23;20024;-75
2021/06/15 08:43:22;;;;;;;5.85;2.83;;;;;;;26.21;29.76;101623.69;6192421;23;20009;-75
2021/06/15 08:45:50;;;;;;;4.00;2.50;;;;;;;26.24;29.58;101614.84;6192371;23;20009;-75
2021/06/15 08:48:19;;;;;;;5.45;2.60;;;;;;;26.26;29.16;101612.69;6192197;23;20024;-75
2021/06/15 08:50:48;;;;;;;5.90;2.70;;;;;;;26.28;28.87;101605.75;6192656;23;20009;-75
2021/06/15 08:53:16;;;;;;;4.30;2.28;;;;;;;26.30;29.04;101617.63;6192182;23;20056;-75
2021/06/15 08:55:49;;;;;;;4.53;2.30;;;;;;;26.34;28.52;101618.06;6191961;23;20273;-75
2021/06/15 08:58:29;;;;;;;4.82;2.03;;;;;;;26.36;28.64;101615.88;6192490;23;20037;-75
2021/06/15 09:00:58;;;;;;;4.82;2.30;;;;;;;26.35;28.86;101611.34;6165182;23;20078;-75
2021/06/15 09:03:26;;;;;;;4.57;2.60;;;;;;;26.39;28.98;101612.69;6166448;23;20017;-76
2021/06/15 09:05:56;;;;;;;3.92;2.00;;;;;;;26.44;28.78;101614.81;6165462;23;20300;-75
2021/06/15 09:08:24;;;;;;;5.15;2.63;;;;;;;26.48;28.97;101625.41;6192311;23;20273;-75
2021/06/15 09:10:52;;;;;;;5.90;2.80;;;;;;;26.52;28.74;101617.38;6166005;23;20099;-75
2021/06/15 09:13:37;;;;;;;4.28;2.10;;;;;;;26.57;28.44;101612.88;6192527;23;20060;-75
2021/06/15 09:16:25;;;;;;;3.80;2.10;;;;;;;26.61;27.88;101616.94;6192145;23;20012;-76
2021/06/15 09:18:55;;;;;;;4.45;2.65;;;;;;;26.60;28.18;101614.34;6192776;23;20012;-76
2021/06/15 09:21:41;;;;;;;3.92;2.33;;;;;;;26.64;28.03;101618.44;6192257;23;20017;-75
2021/06/15 09:24:12;;;;;;;4.68;2.80;;;;;;;26.65;28.38;101611.75;6192531;23;20009;-75
2021/06/15 09:27:01;;;;;;;3.97;2.30;;;;;;;26.68;28.14;101614.09;6191552;23;20036;-75
2021/06/15 09:29:43;;;;;;;4.80;2.30;;;;;;;26.69;27.42;101613.03;6165948;23;20025;-76
2021/06/15 09:32:16;;;;;;;3.45;2.30;;;;;;;26.67;28.16;101610.47;6192189;23;20036;-76
2021/06/15 09:34:53;;;;;;;4.22;2.40;;;;;;;26.73;27.67;101613.47;6167242;23;20017;-76
2021/06/15 09:37:31;;;;;;;4.20;2.38;;;;;;;26.74;27.47;101615.19;6167476;23;20013;-76
2021/06/15 09:40:00;;;;;;;6.63;3.13;;;;;;;26.72;28.01;101608.91;6194388;23;20019;-76
2021/06/15 09:42:29;;;;;;;5.90;2.50;;;;;;;26.74;27.84;101613.25;6167581;23;20032;-76
2021/06/15 09:44:58;;;;;;;3.60;2.20;;;;;;;26.80;27.89;101606.72;6194181;23;20009;-76
2021/06/15 09:47:27;;;;;;;4.60;2.33;;;;;;;26.83;27.95;101608.25;6193979;23;20098;-76
2021/06/15 09:49:55;;;;;;;4.70;2.83;;;;;;;26.88;27.61;101611.22;6159894;23;20016;-76
2021/06/15 09:52:26;;;;;;;4.50;2.40;;;;;;;26.92;27.52;101609.75;6191755;23;20094;-77
2021/06/15 09:54:57;;;;;;;4.88;2.60;;;;;;;26.94;27.01;101613.19;6190715;23;20012;-77
2021/06/15 09:57:27;;;;;;;5.63;2.03;;;;;;;26.97;26.82;101609.94;6192738;23;20293;-78
2021/06/15 10:00:04;;;;;;;2.85;1.80;;;;;;;27.00;26.06;101607.56;6193812;23;20017;-77
2021/06/15 10:02:36;;;;;;;6.78;2.55;;;;;;;27.00;26.45;101609.50;6166858;23;20247;-77
2021/06/15 10:05:21;;;;;;;5.15;2.38;;;;;;;27.02;25.87;101613.78;6193383;23;20017;-77
2021/06/15 10:07:51;;;;;;;4.28;2.10;;;;;;;27.00;25.95;101603.88;6193047;23;20016;-76
2021/06/15 10:10:23;;;;;;;4.28;2.20;;;;;;;27.05;25.32;101616.16;6166736;23;20013;-77
2021/06/15 10:12:52;;;;;;;3.22;1.70;;;;;;;27.05;25.94;101604.91;6191442;23;20103;-76
2021/06/15 10:15:23;;;;;;;2.78;1.70;;;;;;;27.11;25.76;101602.28;6192731;23;20078;-77
2021/06/15 10:17:51;;;;;;;2.63;1.45;;;;;;;27.13;25.89;101602.94;6192128;23;20310;-77
2021/06/15 10:20:22;;;;;;;3.47;1.48;;;;;;;27.19;25.70;101611.31;6194230;23;20257;-77
2021/06/15 10:22:51;;;;;;;2.50;1.40;;;;;;;27.23;26.07;101607.00;6165320;23;20009;-77
2021/06/15 10:25:22;;;;;;;2.72;1.90;;;;;;;27.31;25.58;101617.09;6167611;23;20052;-77
2021/06/15 10:27:51;;;;;;;2.50;1.45;;;;;;;27.34;25.83;101606.25;6193294;23;20009;-77
2021/06/15 10:30:30;;;;;;;2.70;1.58;;;;;;;27.44;25.48;101608.56;6193240;23;20052;-78
2021/06/15 10:33:02;;;;;;;2.05;1.45;;;;;;;27.47;25.45;101610.97;6193658;23;20023;-77
2021/06/15 10:35:35;;;;;;;2.88;1.50;;;;;;;27.52;25.31;101611.16;6192958;23;20044;-77
2021/06/15 10:38:04;;;;;;;3.38;1.60;;;;;;;27.54;25.11;101599.69;6165953;23;20008;-77
2021/06/15 10:40:53;;;;;;;2.20;1.52;;;;;;;27.59;24.57;101602.66;6166656;23;20031;-77
2021/06/15 10:43:29;;;;;;;2.90;1.50;;;;;;;27.62;25.00;101600.28;6193629;23;20015;-78
2021/06/15 10:46:06;;;;;;;3.35;1.50;;;;;;;27.66;24.88;101587.50;6192828;23;20357;-80
2021/06/15 10:48:43;;;;;;;4.03;1.30;;;;;;;27.70;24.97;101593.50;6142973;23;20107;-79
2021/06/15 10:51:21;;;;;;;3.35;1.50;;;;;;;27.75;23.82;101600.16;6167059;23;20016;-79
2021/06/15 10:53:51;;;;;;;2.08;1.13;;;;;;;27.77;24.62;101595.16;6166576;23;20020;-78
2021/06/15 10:56:23;;;;;;;2.15;1.30;;;;;;;27.85;24.66;101604.41;6193055;23;20369;-79
2021/06/15 10:59:06;;;;;;;2.60;1.30;;;;;;;27.88;24.57;101604.81;6166398;23;20103;-78
2021/06/15 11:01:38;;;;;;;3.35;1.20;;;;;;;27.96;24.27;101606.47;6193554;23;20031;-78
2021/06/15 11:04:12;;;;;;;2.00;1.02;;;;;;;28.02;24.42;101605.59;6193583;23;20031;-77
2021/06/15 11:06:46;;;;;;;2.20;1.20;;;;;;;28.10;24.23;101602.47;6193164;23;20013;-76
2021/06/15 11:09:18;;;;;;;1.70;1.00;;;;;;;28.16;24.21;101595.94;6193240;23;20072;-77
2021/06/15 11:11:49;;;;;;;1.80;1.10;;;;;;;28.21;24.05;101601.72;6193067;23;20009;-77
2021/06/15 11:14:19;;;;;;;2.30;1.05;;;;;;;28.26;23.82;101601.03;6142496;23;20020;-78
2021/06/15 11:16:50;;;;;;;2.33;1.20;;;;;;;28.32;23.07;101597.31;6193559;23;20037;-79
2021/06/15 11:19:35;;;;;;;2.10;1.10;;;;;;;28.36;22.92;101593.78;6142570;23;20005;-81
2021/06/15 11:22:17;;;;;;;2.35;1.20;;;;;;;28.40;22.51;101592.22;6167117;23;20405;-79
2021/06/15 11:24:50;;;;;;;2.60;1.40;;;;;;;28.40;23.24;101599.81;6167757;23;20117;-79
2021/06/15 11:27:33;;;;;;;1.85;1.15;;;;;;;28.44;22.92;101599.09;6193306;23;20033;-79
2021/06/15 11:30:24;;;;;;;2.85;1.40;;;;;;;28.43;22.70;101597.38;6193485;23;20042;-81
2021/06/15 11:33:09;;;;;;;2.88;1.50;;;;;;;28.47;23.02;101587.38;6192954;23;20058;-78
2021/06/15 11:35:42;;;;;;;2.53;1.42;;;;;;;28.52;22.25;101590.38;6193164;23;20009;-78
2021/06/15 11:38:15;;;;;;;3.08;1.42;;;;;;;28.55;22.68;101594.69;6193411;23;20029;-78
2021/06/15 11:40:46;;;;;;;2.85;1.38;;;;;;;28.52;22.62;101592.34;6193992;23;20369;-78
2021/06/15 11:43:20;;;;;;;1.88;1.25;;;;;;;28.57;22.25;101592.50;6167674;23;20045;-78
2021/06/15 11:45:50;;;;;;;2.63;1.42;;;;;;;28.55;22.47;101589.06;6193482;23;20110;-79
2021/06/15 11:48:33;;;;;;;3.53;1.60;;;;;;;28.57;21.67;101588.84;6193273;23;20262;-79
2021/06/15 11:51:05;;;;;;;3.00;1.73;;;;;;;28.52;21.73;101578.25;6166615;23;20047;-83
2021/06/15 11:53:36;;;;;;;3.03;1.58;;;;;;;28.49;22.47;101585.16;6166326;23;20376;-83